KVEL

Vernal Regional Airport

Vernal, Utah, USA
KVEL 200534Z 2006/2106 VRB03KT P6SM OVC030 FM200800 VRB03KT P6SM SCT070 BKN100 FM202000 VRB03KT P6SM SCT080 BKN150
Issued Valid From Valid To
Jan-20 @ 05:34 UTC
(6 hours ago)
Jan-20 @ 06:00 UTC
(5 hours ago)
Jan-21 @ 06:00 UTC
(in 19 hours)
Expired Click to View Jan-20 @ 06:00 to Jan-20 @ 08:00
KVEL 200534Z 2006/2106 VRB03KT P6SM OVC030
Wind Visibility Clouds
Variable at 3 knots Greater than 6 miles
  • Overcast at 3,000' AGL
From Jan-20 @ 08:00 to Jan-20 @ 20:00
FM200800 VRB03KT P6SM SCT070 BKN100
Wind Visibility Clouds
Variable at 3 knots Greater than 6 miles
  • Scattered at 7,000' AGL
  • Broken at 10,000' AGL
From Jan-20 @ 20:00 to Jan-21 @ 06:00
FM202000 VRB03KT P6SM SCT080 BKN150
Wind Visibility Clouds
Variable at 3 knots Greater than 6 miles
  • Scattered at 8,000' AGL
  • Broken at 15,000' AGL
KVEL 200534Z 2006/2106 VRB03KT P6SM OVC030 FM200800 VRB03KT P6SM SCT070 BKN100 FM202000 VRB03KT P6SM SCT080 BKN150
Issued Jan-20 @ 05:34 UTC
(6 hours ago)
Valid From Jan-20 @ 06:00 UTC
(5 hours ago)
Valid To Jan-21 @ 06:00 UTC
(in 19 hours)
Jan-20 @ 06:00 - Jan-20 @ 08:00
Wind Visibility
Variable at 3 knots Greater than 6 miles
Clouds
  • Overcast at 3,000' AGL
From Jan-20 @ 08:00 - Jan-20 @ 20:00
Wind Visibility
Variable at 3 knots Greater than 6 miles
Clouds
  • Scattered at 7,000' AGL
  • Broken at 10,000' AGL
From Jan-20 @ 20:00 - Jan-21 @ 06:00
Wind Visibility
Variable at 3 knots Greater than 6 miles
Clouds
  • Scattered at 8,000' AGL
  • Broken at 15,000' AGL